Time;durP1;ratioP1;P1;durP2;ratioP2;P2;SDS_P1;SDS_P2;PMS_P1;PMS_P2;Temp;Humidity;BMP_temperature;BMP_pressure;BME280_temperature;BME280_humidity;BME280_pressure;Samples;Min_cycle;Max_cycle;Signal;HPM_P1;HPM_P2
2021/12/22 00:01:08;;;;;;;47.58;23.80;;;-3.50;99.90;;;;;;4952589;28;20142;-80
2021/12/22 00:03:34;;;;;;;38.72;22.15;;;-3.50;99.90;;;;;;4966089;28;20513;-80
2021/12/22 00:05:59;;;;;;;46.40;23.25;;;-3.50;99.90;;;;;;4984789;28;20116;-79
2021/12/22 00:08:26;;;;;;;41.67;23.15;;;-3.50;99.90;;;;;;4951899;28;20596;-79
2021/12/22 00:10:52;;;;;;;41.30;24.33;;;-3.50;99.90;;;;;;4967699;28;20042;-79
2021/12/22 00:13:18;;;;;;;40.35;22.20;;;-3.40;99.90;;;;;;4951809;28;20066;-79
2021/12/22 00:15:44;;;;;;;39.97;20.35;;;-3.40;99.90;;;;;;4984323;28;20261;-79
2021/12/22 00:18:10;;;;;;;37.10;21.55;;;-3.40;99.90;;;;;;4966989;28;20053;-79
2021/12/22 00:20:36;;;;;;;39.40;22.20;;;-3.40;99.90;;;;;;4967448;28;20043;-79
2021/12/22 00:23:02;;;;;;;39.33;21.65;;;-3.40;99.90;;;;;;4951668;28;20049;-79
2021/12/22 00:25:27;;;;;;;33.60;20.77;;;-3.40;99.90;;;;;;4951154;28;20133;-79
2021/12/22 00:27:55;;;;;;;40.42;20.02;;;-3.50;99.90;;;;;;4967760;28;20039;-79
2021/12/22 00:30:24;;;;;;;35.25;19.42;;;-3.50;99.90;;;;;;4968181;28;20101;-79
2021/12/22 00:32:52;;;;;;;31.38;19.02;;;-3.60;99.90;;;;;;4966234;28;20155;-79
2021/12/22 00:35:20;;;;;;;34.67;20.73;;;-3.70;99.90;;;;;;4967594;28;20054;-79
2021/12/22 00:37:47;;;;;;;35.78;20.27;;;-3.70;99.90;;;;;;4966625;28;20089;-79
2021/12/22 00:40:13;;;;;;;34.75;19.45;;;-3.70;99.90;;;;;;4968218;28;20062;-79
2021/12/22 00:42:38;;;;;;;31.40;19.20;;;-3.70;99.90;;;;;;4967431;28;20101;-78
2021/12/22 00:45:05;;;;;;;38.78;21.23;;;-3.70;99.90;;;;;;4967117;28;20051;-79
2021/12/22 00:47:32;;;;;;;41.25;21.67;;;-3.80;99.90;;;;;;4950618;28;20047;-79
2021/12/22 00:49:59;;;;;;;38.22;21.33;;;-3.80;99.90;;;;;;4951707;28;20059;-79
2021/12/22 00:52:25;;;;;;;35.58;20.58;;;-3.80;99.90;;;;;;4966308;28;20498;-79
2021/12/22 00:54:52;;;;;;;42.70;21.23;;;-3.80;99.90;;;;;;4967703;28;20487;-79
2021/12/22 00:57:18;;;;;;;39.33;20.65;;;-3.80;99.90;;;;;;4951851;28;20066;-79
2021/12/22 00:59:46;;;;;;;41.03;19.50;;;-3.80;99.90;;;;;;4954481;28;20466;-79
2021/12/22 01:02:15;;;;;;;31.70;18.25;;;-3.80;99.90;;;;;;4986167;28;20049;-79
2021/12/22 01:04:42;;;;;;;37.13;18.70;;;-3.80;99.90;;;;;;4955155;28;20046;-79
2021/12/22 01:07:08;;;;;;;32.42;17.35;;;-3.90;99.90;;;;;;4969808;28;20046;-79
2021/12/22 01:09:36;;;;;;;34.63;18.98;;;-4.00;99.90;;;;;;4970842;28;20089;-79
2021/12/22 01:12:03;;;;;;;29.13;17.45;;;-4.00;99.90;;;;;;4970533;28;20088;-79
2021/12/22 01:14:29;;;;;;;35.35;18.38;;;-4.00;99.90;;;;;;4954489;28;20046;-79
2021/12/22 01:17:00;;;;;;;33.65;18.60;;;-4.10;99.90;;;;;;4969944;28;20601;-78
2021/12/22 01:19:35;;;;;;;35.63;19.20;;;-4.10;99.90;;;;;;4970686;28;20518;-78
2021/12/22 01:22:18;;;;;;;31.17;17.70;;;-4.10;99.90;;;;;;4986112;28;20054;-79
2021/12/22 01:24:48;;;;;;;33.88;19.95;;;-4.10;99.90;;;;;;4987354;28;20199;-79
2021/12/22 01:27:15;;;;;;;35.33;18.48;;;-4.20;99.90;;;;;;4970282;28;20577;-79
2021/12/22 01:29:41;;;;;;;38.15;18.30;;;-3.50;99.90;;;;;;4970922;28;20042;-79
2021/12/22 01:32:09;;;;;;;35.67;20.88;;;-4.20;99.90;;;;;;4971325;28;20049;-79
2021/12/22 01:34:35;;;;;;;36.75;19.23;;;-4.30;99.90;;;;;;4973233;28;20502;-79
2021/12/22 01:37:01;;;;;;;32.33;19.58;;;-4.30;99.90;;;;;;4974357;28;20069;-79
2021/12/22 01:39:27;;;;;;;31.08;18.73;;;-4.30;99.90;;;;;;4973387;28;20434;-79
2021/12/22 01:41:53;;;;;;;30.77;17.77;;;-4.30;99.90;;;;;;4973799;28;20046;-79
2021/12/22 01:44:31;;;;;;;33.35;19.38;;;-4.20;99.90;;;;;;4973776;28;20073;-79
2021/12/22 01:49:50;;;;;;;29.63;17.30;;;-4.30;99.90;;;;;;4973816;28;20520;-79
2021/12/22 01:52:18;;;;;;;31.25;16.70;;;-4.30;99.90;;;;;;4973914;28;20069;-79
2021/12/22 01:54:49;;;;;;;30.27;18.27;;;-4.40;99.90;;;;;;4989955;28;20133;-79
2021/12/22 01:57:16;;;;;;;28.45;18.38;;;-4.40;99.90;;;;;;4989022;28;20181;-79
2021/12/22 01:59:45;;;;;;;37.20;19.92;;;-4.30;99.90;;;;;;4973871;28;20076;-79
2021/12/22 02:02:12;;;;;;;30.73;17.38;;;-4.30;99.90;;;;;;4972567;28;20045;-79
2021/12/22 02:04:40;;;;;;;30.13;16.05;;;-4.30;99.90;;;;;;4973013;28;20064;-79
2021/12/22 02:07:07;;;;;;;26.05;15.60;;;-4.30;99.90;;;;;;4957717;28;20054;-79
2021/12/22 02:12:10;;;;;;;25.02;15.48;;;-4.50;99.90;;;;;;4973551;28;20410;-79
2021/12/22 02:14:36;;;;;;;23.55;14.60;;;-4.60;99.90;;;;;;4989124;28;20058;-79
2021/12/22 02:17:06;;;;;;;29.77;16.42;;;-4.60;99.90;;;;;;4972108;28;20056;-79
2021/12/22 02:19:37;;;;;;;25.13;14.65;;;-4.70;99.90;;;;;;4989041;28;20101;-79
2021/12/22 02:22:08;;;;;;;24.25;16.05;;;-4.70;99.90;;;;;;4989664;28;20058;-79
2021/12/22 02:24:33;;;;;;;26.88;15.98;;;-4.80;99.90;;;;;;4956144;28;20092;-79
2021/12/22 02:27:05;;;;;;;24.10;14.73;;;-4.80;99.90;;;;;;4973368;28;20548;-79
2021/12/22 02:29:39;;;;;;;26.35;16.50;;;-4.80;99.90;;;;;;4972447;28;20053;-79
2021/12/22 02:32:14;;;;;;;34.50;17.02;;;-4.80;99.90;;;;;;4971851;28;20123;-79
2021/12/22 02:34:44;;;;;;;31.65;17.85;;;-4.80;99.90;;;;;;4989585;28;20513;-79
2021/12/22 02:37:13;;;;;;;27.73;17.15;;;-4.90;99.90;;;;;;4956906;28;20057;-79
2021/12/22 02:39:50;;;;;;;30.42;18.35;;;-4.90;99.90;;;;;;4972008;28;20046;-79
2021/12/22 02:42:20;;;;;;;34.25;18.50;;;-4.90;99.90;;;;;;4972716;28;20047;-79
2021/12/22 02:44:46;;;;;;;25.73;16.63;;;-4.90;99.90;;;;;;4987642;28;20056;-79
2021/12/22 02:47:18;;;;;;;28.90;19.67;;;-4.80;99.90;;;;;;4972136;28;20042;-79
2021/12/22 02:49:43;;;;;;;33.10;18.17;;;-4.90;99.90;;;;;;4988834;28;20042;-79
2021/12/22 02:52:09;;;;;;;33.40;17.60;;;-4.90;99.90;;;;;;4971907;28;20042;-79
2021/12/22 02:54:42;;;;;;;36.63;20.48;;;-4.80;99.90;;;;;;4988425;28;20050;-79
2021/12/22 02:57:20;;;;;;;32.70;17.85;;;-4.80;99.90;;;;;;4956583;28;20479;-79
2021/12/22 03:00:06;;;;;;;35.75;20.00;;;-4.80;99.90;;;;;;4972297;28;20047;-79
2021/12/22 03:02:44;;;;;;;32.13;20.45;;;-4.80;99.90;;;;;;4971676;28;20100;-79
2021/12/22 03:05:10;;;;;;;32.08;19.35;;;-4.70;99.90;;;;;;4956631;28;20039;-79
2021/12/22 03:07:37;;;;;;;31.08;18.77;;;-4.70;99.90;;;;;;4987471;28;20063;-79
2021/12/22 03:10:08;;;;;;;27.25;17.23;;;-4.70;99.90;;;;;;4972626;28;20105;-79
2021/12/22 03:12:36;;;;;;;24.38;16.13;;;-4.70;99.90;;;;;;4971134;28;20049;-79
2021/12/22 03:15:05;;;;;;;32.22;18.17;;;-4.80;99.90;;;;;;4988630;28;20406;-79
2021/12/22 03:17:31;;;;;;;36.72;20.38;;;-4.80;99.90;;;;;;4987275;28;20498;-79
2021/12/22 03:19:56;;;;;;;38.00;21.95;;;-4.70;99.90;;;;;;4971419;28;20053;-79
2021/12/22 03:22:23;;;;;;;30.92;19.48;;;-4.70;99.90;;;;;;4955891;28;20078;-79
2021/12/22 03:24:50;;;;;;;31.70;19.20;;;-4.60;99.90;;;;;;4972382;28;20556;-79
2021/12/22 03:27:17;;;;;;;34.85;18.90;;;-4.70;99.90;;;;;;4971066;28;20050;-79
2021/12/22 03:29:42;;;;;;;35.30;18.88;;;-4.70;99.90;;;;;;4988409;28;20034;-79
2021/12/22 03:32:09;;;;;;;31.00;17.88;;;-4.70;99.90;;;;;;4971115;28;20065;-78
2021/12/22 03:34:36;;;;;;;28.73;16.27;;;-4.70;99.90;;;;;;4954809;28;20046;-79
2021/12/22 03:37:02;;;;;;;27.58;17.17;;;-4.70;99.90;;;;;;4987612;28;20049;-79
2021/12/22 03:39:29;;;;;;;33.25;18.45;;;-4.80;99.90;;;;;;4955474;28;20049;-79
2021/12/22 03:41:55;;;;;;;32.13;19.08;;;-4.80;99.90;;;;;;4987095;28;20054;-79
2021/12/22 03:44:21;;;;;;;37.33;20.63;;;-4.80;99.90;;;;;;4971391;28;20478;-79
2021/12/22 03:46:47;;;;;;;38.17;21.77;;;-4.70;99.90;;;;;;4987820;28;20054;-79
2021/12/22 03:49:14;;;;;;;34.80;19.88;;;-4.70;99.90;;;;;;4971071;28;20038;-79
2021/12/22 03:51:41;;;;;;;31.38;19.65;;;-4.60;99.90;;;;;;4972101;28;20459;-79
2021/12/22 03:54:08;;;;;;;32.90;19.10;;;-4.70;99.90;;;;;;4987773;28;20102;-79
2021/12/22 03:56:34;;;;;;;29.08;17.08;;;-4.70;99.90;;;;;;4970098;28;20522;-78
2021/12/22 03:59:00;;;;;;;32.92;17.33;;;-4.80;99.90;;;;;;4971111;28;20050;-79
2021/12/22 04:01:26;;;;;;;35.75;19.50;;;-4.80;99.90;;;;;;4971233;28;20065;-79
2021/12/22 04:03:56;;;;;;;29.20;18.13;;;-4.70;99.90;;;;;;4970362;28;20038;-79
2021/12/22 04:06:22;;;;;;;32.08;18.05;;;-4.70;99.90;;;;;;4987908;28;20061;-79
2021/12/22 04:08:48;;;;;;;27.25;16.17;;;-4.70;99.90;;;;;;4971188;28;20394;-79
2021/12/22 04:11:13;;;;;;;30.60;17.73;;;-4.80;99.90;;;;;;4971590;28;20049;-79
2021/12/22 04:13:39;;;;;;;31.73;18.40;;;-4.80;99.90;;;;;;4971150;28;20055;-79
2021/12/22 04:16:05;;;;;;;30.30;17.48;;;-4.80;99.90;;;;;;4971274;28;20050;-79
2021/12/22 04:18:30;;;;;;;35.42;17.10;;;-4.80;99.90;;;;;;4970280;28;20534;-79
2021/12/22 04:20:56;;;;;;;27.23;15.65;;;-4.80;99.90;;;;;;4972027;28;20058;-79
2021/12/22 04:23:22;;;;;;;31.80;16.33;;;-4.90;99.90;;;;;;4969851;28;20057;-80
2021/12/22 04:25:48;;;;;;;34.30;17.17;;;-4.80;99.90;;;;;;4971352;28;20129;-79
2021/12/22 04:28:14;;;;;;;40.17;19.15;;;-4.90;99.90;;;;;;4971494;28;20042;-79
2021/12/22 04:30:45;;;;;;;37.38;18.23;;;-4.80;99.90;;;;;;4970443;28;20046;-79
2021/12/22 04:33:12;;;;;;;34.10;17.52;;;-4.70;99.90;;;;;;4986487;28;20054;-79
2021/12/22 04:35:37;;;;;;;31.73;18.80;;;-4.70;99.90;;;;;;4970797;28;20089;-79
2021/12/22 04:38:04;;;;;;;35.00;19.00;;;-4.70;99.90;;;;;;4954471;28;20078;-80
2021/12/22 04:40:30;;;;;;;37.83;17.50;;;-4.60;99.90;;;;;;4970572;28;20047;-80
2021/12/22 04:42:55;;;;;;;33.28;17.55;;;-4.60;99.90;;;;;;4987324;28;20128;-80
2021/12/22 04:45:21;;;;;;;33.88;19.05;;;-4.50;99.90;;;;;;4985933;28;20162;-79
2021/12/22 04:47:50;;;;;;;35.40;18.25;;;-4.50;99.90;;;;;;4986711;28;20039;-79
2021/12/22 04:50:18;;;;;;;32.92;18.88;;;-4.50;99.90;;;;;;4971298;28;20042;-79
2021/12/22 04:55:17;;;;;;;33.67;18.80;;;-4.40;99.90;;;;;;4970369;28;20086;-79
2021/12/22 04:57:43;;;;;;;35.88;18.25;;;-4.40;99.90;;;;;;4967808;28;20086;-80
2021/12/22 05:00:11;;;;;;;34.85;18.23;;;-4.30;99.90;;;;;;4983882;28;20487;-79
2021/12/22 05:02:37;;;;;;;32.97;18.52;;;-4.30;99.90;;;;;;4966404;28;20047;-80
2021/12/22 05:05:04;;;;;;;36.50;17.77;;;-4.30;99.90;;;;;;4968968;28;20055;-80
2021/12/22 05:07:30;;;;;;;34.08;17.80;;;-4.30;99.90;;;;;;4969901;28;20407;-79
2021/12/22 05:09:55;;;;;;;32.00;17.92;;;-3.70;99.90;;;;;;4972984;28;20043;-80
2021/12/22 05:12:21;;;;;;;30.45;16.70;;;-4.30;99.90;;;;;;4970118;28;20465;-80
2021/12/22 05:14:49;;;;;;;32.53;17.67;;;-4.30;99.90;;;;;;4972188;28;20117;-80
2021/12/22 05:17:21;;;;;;;33.40;17.92;;;-4.30;99.90;;;;;;4970886;28;20498;-80
2021/12/22 05:19:47;;;;;;;34.50;17.00;;;-4.30;99.90;;;;;;4987655;28;20043;-79
2021/12/22 05:22:13;;;;;;;28.90;16.88;;;-4.40;99.90;;;;;;4988246;28;20518;-80
2021/12/22 05:24:40;;;;;;;31.25;17.02;;;-4.30;99.90;;;;;;4971055;28;20402;-80
2021/12/22 05:27:08;;;;;;;30.75;17.38;;;-4.40;99.90;;;;;;4971093;28;20537;-79
2021/12/22 05:29:34;;;;;;;27.92;15.88;;;-4.40;99.90;;;;;;4970826;28;20105;-79
2021/12/22 05:32:01;;;;;;;29.33;16.67;;;-4.40;99.90;;;;;;4971136;28;20046;-80
2021/12/22 05:34:27;;;;;;;36.28;17.35;;;-4.40;99.90;;;;;;4971146;28;20055;-81
2021/12/22 05:36:54;;;;;;;30.35;16.60;;;-4.40;99.90;;;;;;4972437;28;20480;-81
2021/12/22 05:39:20;;;;;;;31.20;17.17;;;-4.50;99.90;;;;;;4973475;28;20053;-80
2021/12/22 05:41:45;;;;;;;31.30;17.80;;;-4.40;99.90;;;;;;4972771;28;20046;-81
2021/12/22 05:44:11;;;;;;;32.42;17.10;;;-4.50;99.90;;;;;;4990375;28;20054;-81
2021/12/22 05:46:37;;;;;;;30.63;17.58;;;-4.50;99.90;;;;;;4989776;28;20508;-80
2021/12/22 05:49:02;;;;;;;28.77;16.92;;;-4.50;99.90;;;;;;4973038;28;20581;-80
2021/12/22 05:51:31;;;;;;;32.08;17.27;;;-4.50;99.90;;;;;;4973585;28;20403;-80
2021/12/22 05:53:56;;;;;;;32.22;17.45;;;-4.50;99.90;;;;;;4989960;28;20405;-81
2021/12/22 05:56:22;;;;;;;31.40;16.83;;;-4.50;99.90;;;;;;4989040;28;20050;-81
2021/12/22 05:58:47;;;;;;;32.05;17.17;;;-4.50;99.90;;;;;;4988668;28;20092;-80
2021/12/22 06:01:13;;;;;;;30.20;16.85;;;-4.50;99.90;;;;;;4990146;28;20054;-80
2021/12/22 06:03:39;;;;;;;33.55;15.98;;;-4.60;99.90;;;;;;4988224;28;20034;-80
2021/12/22 06:06:04;;;;;;;29.98;16.30;;;-4.60;99.90;;;;;;4974025;28;20145;-81
2021/12/22 06:08:30;;;;;;;29.77;16.50;;;-4.60;99.90;;;;;;4988519;28;20042;-80
2021/12/22 06:10:56;;;;;;;34.72;17.30;;;-4.60;99.90;;;;;;4991167;28;20054;-81
2021/12/22 06:13:22;;;;;;;32.90;17.95;;;-4.60;99.90;;;;;;4989216;28;20046;-81
2021/12/22 06:15:47;;;;;;;30.67;16.77;;;-4.60;99.90;;;;;;4989301;28;20042;-81
2021/12/22 06:18:13;;;;;;;28.75;17.98;;;-4.60;99.90;;;;;;4972193;28;20523;-81
2021/12/22 06:20:39;;;;;;;39.75;18.13;;;-4.60;99.90;;;;;;4988956;28;20050;-81
2021/12/22 06:23:04;;;;;;;28.75;15.95;;;-4.60;99.90;;;;;;4988277;28;20085;-80
2021/12/22 06:25:30;;;;;;;28.73;17.05;;;-4.70;99.90;;;;;;4983469;28;20126;-80
2021/12/22 06:27:56;;;;;;;29.40;16.27;;;-4.70;99.90;;;;;;4970311;28;20043;-80
2021/12/22 06:30:22;;;;;;;27.25;16.13;;;-4.70;99.90;;;;;;4968482;28;20054;-80
2021/12/22 06:32:49;;;;;;;30.52;17.15;;;-4.70;99.90;;;;;;4964533;28;20062;-80
2021/12/22 06:35:15;;;;;;;28.75;16.40;;;-4.80;99.90;;;;;;5004511;28;20124;-81
2021/12/22 06:37:43;;;;;;;32.75;17.20;;;-4.80;99.90;;;;;;4977571;28;20053;-81
2021/12/22 06:40:09;;;;;;;30.40;16.58;;;-4.80;99.90;;;;;;4978680;28;20486;-81
2021/12/22 06:42:37;;;;;;;35.70;18.67;;;-4.80;99.90;;;;;;4987663;28;20054;-81
2021/12/22 06:45:04;;;;;;;34.70;17.27;;;-4.80;99.90;;;;;;5002754;28;20042;-81
2021/12/22 06:47:29;;;;;;;38.95;18.27;;;-4.80;99.90;;;;;;4976670;28;20054;-81
2021/12/22 06:49:55;;;;;;;30.67;17.67;;;-4.80;99.90;;;;;;4980267;28;20042;-81
2021/12/22 06:52:21;;;;;;;37.40;18.13;;;-4.70;99.90;;;;;;4976726;28;20069;-81
2021/12/22 06:54:46;;;;;;;36.47;17.80;;;-4.80;99.90;;;;;;4979227;28;20046;-81
2021/12/22 06:57:15;;;;;;;33.55;17.00;;;-4.80;99.90;;;;;;4978682;28;20046;-81
2021/12/22 06:59:41;;;;;;;36.58;17.92;;;-4.80;99.90;;;;;;4980883;28;20050;-81
2021/12/22 07:02:07;;;;;;;29.90;16.05;;;-4.80;99.90;;;;;;4981112;28;20825;-80
2021/12/22 07:04:32;;;;;;;32.97;17.00;;;-4.80;99.90;;;;;;5006782;28;20068;-81
2021/12/22 07:06:58;;;;;;;30.20;17.48;;;-4.90;99.90;;;;;;4980746;28;20132;-80
2021/12/22 07:09:26;;;;;;;43.78;16.85;;;-4.90;99.90;;;;;;4981641;28;20448;-81
2021/12/22 07:11:52;;;;;;;37.35;19.17;;;-4.90;99.90;;;;;;5006763;28;20422;-80
2021/12/22 07:14:18;;;;;;;38.45;18.30;;;-4.90;99.90;;;;;;4980437;28;20474;-80
2021/12/22 07:16:45;;;;;;;31.85;17.65;;;-3.80;99.90;;;;;;4965536;28;20394;-81
2021/12/22 07:19:12;;;;;;;39.13;17.02;;;-4.90;99.90;;;;;;4989548;28;20045;-81
2021/12/22 07:21:38;;;;;;;30.02;16.73;;;-4.90;99.90;;;;;;4963740;28;20035;-81
2021/12/22 07:24:05;;;;;;;40.08;17.20;;;-4.90;99.90;;;;;;4982230;28;20563;-81
2021/12/22 07:26:31;;;;;;;33.95;16.98;;;-4.90;99.90;;;;;;5005985;28;20034;-80
2021/12/22 07:28:57;;;;;;;35.25;17.92;;;-4.90;99.90;;;;;;4980673;28;20043;-80
2021/12/22 07:31:22;;;;;;;32.55;17.17;;;-4.90;99.90;;;;;;4965485;28;20103;-80
2021/12/22 07:33:57;;;;;;;30.13;17.38;;;-5.00;99.90;;;;;;4988047;28;20145;-80
2021/12/22 07:36:22;;;;;;;31.33;16.38;;;-4.00;99.90;;;;;;4980759;28;20038;-80
2021/12/22 07:39:00;;;;;;;32.33;16.48;;;-4.90;99.90;;;;;;4980486;28;20524;-80
2021/12/22 07:41:27;;;;;;;32.47;17.20;;;-4.90;99.90;;;;;;4971858;28;20490;-80
2021/12/22 07:43:53;;;;;;;36.63;18.52;;;-4.90;99.90;;;;;;4959368;28;20077;-80
2021/12/22 07:46:19;;;;;;;33.00;16.33;;;-4.90;99.90;;;;;;4969471;28;20061;-80
2021/12/22 07:48:46;;;;;;;34.22;16.35;;;-5.00;99.90;;;;;;4987063;28;20547;-80
2021/12/22 07:51:11;;;;;;;33.55;16.88;;;-5.00;99.90;;;;;;4969871;28;20049;-79
2021/12/22 07:53:37;;;;;;;28.60;16.77;;;-5.00;99.90;;;;;;4952525;28;20042;-79
2021/12/22 07:56:03;;;;;;;32.58;17.73;;;-5.00;99.90;;;;;;4968682;28;20046;-79
2021/12/22 07:58:29;;;;;;;35.22;18.30;;;-5.00;99.90;;;;;;4969137;28;20065;-80
2021/12/22 08:00:56;;;;;;;34.83;17.63;;;-5.00;99.90;;;;;;4954232;28;20064;-80
2021/12/22 08:03:22;;;;;;;33.65;17.27;;;-5.00;99.90;;;;;;4954309;28;20073;-80
2021/12/22 08:05:48;;;;;;;35.80;17.00;;;-4.90;99.90;;;;;;4970360;28;20069;-79
2021/12/22 08:08:14;;;;;;;35.67;16.70;;;-4.90;99.90;;;;;;4969091;28;20843;-80
2021/12/22 08:10:41;;;;;;;29.42;17.20;;;-4.40;99.90;;;;;;4968938;28;20442;-80
2021/12/22 08:13:07;;;;;;;35.45;18.55;;;-4.80;99.90;;;;;;4969508;28;20045;-80
2021/12/22 08:15:33;;;;;;;34.72;16.88;;;-4.00;99.90;;;;;;4968465;28;20530;-79
2021/12/22 08:17:59;;;;;;;31.08;17.13;;;-4.80;99.90;;;;;;4968366;28;20049;-80
2021/12/22 08:20:25;;;;;;;36.80;17.00;;;-4.80;99.90;;;;;;4968741;28;20042;-80
2021/12/22 08:22:51;;;;;;;34.13;18.00;;;-4.70;99.90;;;;;;4968007;28;20132;-80
2021/12/22 08:25:17;;;;;;;28.42;17.23;;;-4.60;99.90;;;;;;4968577;28;20042;-82
2021/12/22 08:27:43;;;;;;;30.60;17.10;;;-4.60;99.90;;;;;;4969070;28;20184;-78
2021/12/22 08:30:09;;;;;;;31.67;16.95;;;-4.60;99.90;;;;;;4966998;28;20054;-81
2021/12/22 08:32:35;;;;;;;33.03;16.95;;;-4.60;99.90;;;;;;4967634;28;20077;-82
2021/12/22 08:35:03;;;;;;;34.03;17.30;;;-4.50;99.90;;;;;;4968855;28;20140;-80
2021/12/22 08:40:17;;;;;;;33.80;17.25;;;-4.40;99.90;;;;;;4968827;28;20100;-79
2021/12/22 08:42:44;;;;;;;31.92;17.02;;;-4.30;99.90;;;;;;4970455;28;20062;-79
2021/12/22 08:45:10;;;;;;;35.83;17.90;;;-4.30;99.90;;;;;;4972086;28;20073;-79
2021/12/22 08:47:36;;;;;;;35.28;17.65;;;-4.20;99.90;;;;;;4967082;28;20104;-79
2021/12/22 08:50:04;;;;;;;34.63;17.67;;;-4.10;99.90;;;;;;4992221;28;20056;-79
2021/12/22 08:52:30;;;;;;;39.17;16.55;;;-4.10;99.90;;;;;;4991293;28;20049;-79
2021/12/22 08:54:55;;;;;;;38.35;17.58;;;-4.00;99.90;;;;;;4976234;28;20045;-79
2021/12/22 08:57:21;;;;;;;33.30;17.55;;;-3.90;99.90;;;;;;4988250;28;20672;-78
2021/12/22 08:59:47;;;;;;;34.05;16.25;;;-3.90;99.90;;;;;;4989973;28;20057;-79
2021/12/22 09:02:13;;;;;;;30.27;16.55;;;-3.80;99.90;;;;;;5005371;28;20050;-79
2021/12/22 09:04:39;;;;;;;30.40;17.08;;;-3.80;99.90;;;;;;4974680;28;20077;-79
2021/12/22 09:07:05;;;;;;;31.52;17.15;;;-3.70;99.90;;;;;;4969415;28;20580;-79
2021/12/22 09:09:31;;;;;;;33.88;17.85;;;-3.70;99.90;;;;;;4991546;28;20041;-80
2021/12/22 09:11:57;;;;;;;39.33;18.40;;;-3.70;99.90;;;;;;4959074;28;20093;-79
2021/12/22 09:14:24;;;;;;;32.67;16.67;;;-3.60;99.90;;;;;;4988082;28;20050;-79
2021/12/22 09:16:50;;;;;;;34.30;16.65;;;-3.60;99.90;;;;;;4988535;28;20141;-79
2021/12/22 09:19:16;;;;;;;32.33;17.30;;;-3.50;99.90;;;;;;4957962;28;20042;-79
2021/12/22 09:21:42;;;;;;;36.72;17.20;;;-3.50;99.90;;;;;;4972156;28;20050;-80
2021/12/22 09:24:08;;;;;;;33.00;17.02;;;-3.40;99.90;;;;;;5004313;28;20034;-80
2021/12/22 09:26:35;;;;;;;33.63;16.90;;;-3.30;99.90;;;;;;5006755;28;20036;-79
2021/12/22 09:29:02;;;;;;;30.55;16.85;;;-3.30;99.90;;;;;;4989306;28;20046;-80
2021/12/22 09:31:28;;;;;;;37.22;18.10;;;-3.20;99.90;;;;;;5009061;28;20046;-81
2021/12/22 09:33:53;;;;;;;42.63;19.38;;;-3.20;99.90;;;;;;4973053;28;20788;-79
2021/12/22 09:36:20;;;;;;;34.15;18.83;;;-3.10;99.90;;;;;;4989956;28;20053;-80
2021/12/22 09:38:45;;;;;;;39.28;18.80;;;-3.10;99.90;;;;;;4972561;28;20726;-80
2021/12/22 09:41:12;;;;;;;31.75;17.25;;;-1.80;99.90;;;;;;5003208;28;20054;-80
2021/12/22 09:43:39;;;;;;;36.28;18.13;;;-3.00;99.90;;;;;;5003622;28;20097;-79
2021/12/22 09:46:09;;;;;;;36.72;18.35;;;-2.90;99.90;;;;;;5004119;28;20066;-80
2021/12/22 09:53:30;;;;;;;31.48;16.45;;;-2.60;99.90;;;;;;4969196;28;20050;-79
2021/12/22 09:55:59;;;;;;;36.05;16.75;;;-2.60;99.90;;;;;;4975237;28;20052;-79
2021/12/22 09:58:26;;;;;;;32.13;16.50;;;-1.20;99.90;;;;;;4980803;28;20541;-79
2021/12/22 10:00:52;;;;;;;33.30;16.17;;;-2.40;99.90;;;;;;4983750;28;20129;-80
2021/12/22 10:03:20;;;;;;;29.85;15.75;;;-2.40;99.90;;;;;;4978743;28;20034;-80
2021/12/22 10:05:46;;;;;;;29.83;16.27;;;-2.30;99.90;;;;;;4980871;28;20648;-80
2021/12/22 10:08:13;;;;;;;35.45;16.23;;;-2.30;99.90;;;;;;4973005;28;20399;-78
2021/12/22 10:10:44;;;;;;;31.67;16.38;;;-2.20;99.90;;;;;;4971613;28;20050;-80
2021/12/22 10:13:14;;;;;;;27.70;15.95;;;-2.20;99.90;;;;;;4971251;28;20509;-80
2021/12/22 10:15:40;;;;;;;32.33;16.50;;;-2.10;99.90;;;;;;4970701;28;20047;-80
2021/12/22 10:18:12;;;;;;;37.65;17.10;;;-1.40;99.90;;;;;;4970302;28;20056;-79
2021/12/22 10:20:39;;;;;;;31.33;17.23;;;-2.00;99.90;;;;;;4976806;28;20538;-80
2021/12/22 10:23:26;;;;;;;33.60;16.85;;;-2.10;99.90;;;;;;4997568;28;20642;-79
2021/12/22 10:25:54;;;;;;;32.25;15.35;;;-2.00;99.90;;;;;;4981002;28;20429;-80
2021/12/22 10:28:20;;;;;;;35.67;16.70;;;-2.00;99.90;;;;;;4964152;28;20045;-80
2021/12/22 10:30:48;;;;;;;31.63;16.75;;;-1.80;99.90;;;;;;4978495;28;20133;-80
2021/12/22 10:33:19;;;;;;;32.03;16.70;;;-1.90;99.90;;;;;;4978287;28;20050;-80
2021/12/22 10:35:50;;;;;;;30.60;16.17;;;-1.80;99.90;;;;;;4989306;28;20058;-80
2021/12/22 10:38:21;;;;;;;34.35;17.02;;;-1.80;99.90;;;;;;4973598;28;20036;-80
2021/12/22 10:40:50;;;;;;;30.15;17.02;;;-1.70;99.90;;;;;;4990458;28;20886;-80
2021/12/22 10:43:24;;;;;;;36.55;17.23;;;-1.70;99.90;;;;;;4972739;28;20057;-79
2021/12/22 10:45:55;;;;;;;31.85;16.67;;;-1.60;99.90;;;;;;4990195;28;20045;-80
2021/12/22 10:51:10;;;;;;;23.58;14.65;;;-1.50;99.90;;;;;;4980516;28;20078;-80
2021/12/22 10:53:44;;;;;;;29.48;15.85;;;-1.50;99.90;;;;;;4965580;28;20042;-80
2021/12/22 10:56:20;;;;;;;36.80;15.25;;;-1.50;99.90;;;;;;4981689;28;20063;-80
2021/12/22 10:58:45;;;;;;;28.08;15.02;;;-1.40;99.90;;;;;;4979810;28;20168;-79
2021/12/22 11:01:14;;;;;;;26.02;14.60;;;-1.40;99.90;;;;;;4981249;28;20513;-79
2021/12/22 11:03:48;;;;;;;27.92;15.18;;;-1.40;99.90;;;;;;4978998;28;20046;-79
2021/12/22 11:06:20;;;;;;;29.20;15.77;;;-1.40;99.90;;;;;;4956387;28;20054;-79
2021/12/22 11:08:56;;;;;;;30.17;14.88;;;-1.30;99.90;;;;;;4964746;28;20066;-82
2021/12/22 11:11:21;;;;;;;24.58;14.85;;;-1.30;99.90;;;;;;4968926;28;20057;-82
2021/12/22 11:14:01;;;;;;;28.90;14.98;;;-1.40;99.90;;;;;;4982820;28;20053;-81
2021/12/22 11:16:27;;;;;;;29.85;15.40;;;-1.40;99.90;;;;;;4961256;28;20077;-79
2021/12/22 11:18:53;;;;;;;25.60;14.27;;;-1.30;99.90;;;;;;4985979;28;20077;-80
2021/12/22 11:21:28;;;;;;;28.73;14.48;;;-1.30;99.90;;;;;;5001541;28;20123;-80
2021/12/22 11:23:53;;;;;;;33.40;15.15;;;-1.30;99.90;;;;;;4969521;28;20049;-80
2021/12/22 11:26:19;;;;;;;25.95;14.30;;;-1.30;99.90;;;;;;5004540;28;20045;-81
2021/12/22 11:28:45;;;;;;;19.88;13.52;;;-1.20;99.90;;;;;;4987260;28;20121;-80
2021/12/22 11:31:11;;;;;;;28.85;15.00;;;-1.30;99.90;;;;;;5010214;28;20049;-81
2021/12/22 11:33:40;;;;;;;25.65;14.32;;;-1.30;99.90;;;;;;4989454;28;20053;-81
2021/12/22 11:36:07;;;;;;;26.30;13.93;;;-1.30;99.90;;;;;;5009375;28;20087;-80
2021/12/22 11:38:33;;;;;;;23.70;13.32;;;-1.20;99.90;;;;;;4990787;28;20061;-80
2021/12/22 11:41:11;;;;;;;29.95;14.48;;;-1.20;99.90;;;;;;4990272;28;20053;-80
2021/12/22 11:43:39;;;;;;;26.40;14.50;;;-1.10;99.90;;;;;;4990218;28;20498;-81
2021/12/22 11:46:05;;;;;;;24.48;14.82;;;-1.10;99.90;;;;;;4974776;28;20490;-79
2021/12/22 11:48:33;;;;;;;29.67;14.60;;;-0.50;99.90;;;;;;4973147;28;20113;-79
2021/12/22 11:50:59;;;;;;;23.85;14.00;;;-0.90;99.90;;;;;;4988354;28;20057;-79
2021/12/22 11:53:25;;;;;;;25.75;13.98;;;-0.90;99.90;;;;;;4970583;28;20058;-80
2021/12/22 11:55:55;;;;;;;27.00;14.95;;;-0.90;99.90;;;;;;4987812;28;20097;-80
2021/12/22 11:58:25;;;;;;;22.92;13.15;;;-0.90;99.90;;;;;;4973532;28;20496;-80
2021/12/22 12:00:54;;;;;;;24.83;14.32;;;-0.90;99.90;;;;;;4971126;28;20041;-80
2021/12/22 12:03:22;;;;;;;24.90;13.63;;;-0.90;99.90;;;;;;4963219;28;20053;-80
2021/12/22 12:06:11;;;;;;;23.60;13.85;;;-0.90;99.90;;;;;;4965140;28;20390;-79
2021/12/22 12:08:40;;;;;;;22.45;13.85;;;-0.90;99.90;;;;;;4996011;28;20054;-79
2021/12/22 12:11:08;;;;;;;18.10;11.93;;;-0.90;99.90;;;;;;4963537;28;20073;-79
2021/12/22 12:13:38;;;;;;;25.77;13.43;;;-0.90;99.90;;;;;;5003408;28;20067;-79
2021/12/22 12:21:51;;;;;;;21.92;12.88;;;-0.70;99.90;;;;;;4979854;28;20075;-79
2021/12/22 12:24:30;;;;;;;;;;;-0.90;99.90;;;;;;4963683;28;20042;-79
2021/12/22 12:26:56;;;;;;;22.70;13.48;;;-0.90;99.90;;;;;;4972031;28;19922;-79
2021/12/22 12:29:53;;;;;;;22.38;12.98;;;-0.90;99.90;;;;;;4970132;28;20050;-79
2021/12/22 12:32:39;;;;;;;21.75;13.50;;;-0.90;99.90;;;;;;4953493;28;20046;-80
2021/12/22 12:35:23;;;;;;;23.85;13.05;;;-0.90;99.90;;;;;;4987580;28;20050;-79
2021/12/22 12:38:08;;;;;;;22.90;12.85;;;-0.90;99.90;;;;;;5003726;28;20480;-80
2021/12/22 12:41:00;;;;;;;21.05;12.93;;;-0.80;99.90;;;;;;4986997;28;20057;-79
2021/12/22 12:46:29;;;;;;;23.42;12.32;;;-0.70;99.90;;;;;;5004030;28;20073;-80
2021/12/22 12:49:16;;;;;;;23.33;12.73;;;-0.70;99.90;;;;;;4986165;28;20135;-80
2021/12/22 12:51:42;;;;;;;25.05;12.73;;;-0.70;99.90;;;;;;4970807;28;20398;-80
2021/12/22 12:54:26;;;;;;;26.90;12.30;;;-0.70;99.90;;;;;;5003311;28;20046;-80
2021/12/22 12:56:54;;;;;;;;;;;-0.70;99.90;;;;;;4955119;28;20730;-80
2021/12/22 12:59:26;;;;;;;22.33;13.25;;;-0.70;99.90;;;;;;4971358;28;20397;-80